Time;durP1;ratioP1;P1;durP2;ratioP2;P2;SDS_P1;SDS_P2;PMS_P1;PMS_P2;Temp;Humidity;BMP_temperature;BMP_pressure;BME280_temperature;BME280_humidity;BME280_pressure;Samples;Min_cycle;Max_cycle;Signal;HPM_P1;HPM_P2
2024/01/10 00:02:32;;;;;;;47.20;23.85;;;;;;;;;;5823196;28;20412;-76
2024/01/10 00:05:23;;;;;;;46.45;17.58;;;;;;;;;;5839163;28;20654;-75
2024/01/10 00:08:14;;;;;;;62.67;24.90;;;;;;;;;;5823279;28;20411;-75
2024/01/10 00:11:05;;;;;;;81.30;31.13;;;;;;;;;;5840395;28;20089;-75
2024/01/10 00:13:59;;;;;;;70.40;25.33;;;;;;;;;;5841291;28;20049;-75
2024/01/10 00:16:50;;;;;;;112.07;33.42;;;;;;;;;;5840895;28;20169;-75
2024/01/10 00:19:41;;;;;;;102.13;30.05;;;;;;;;;;5839297;28;20507;-75
2024/01/10 00:22:32;;;;;;;76.72;25.35;;;;;;;;;;5839281;28;20618;-75
2024/01/10 00:25:23;;;;;;;48.42;24.33;;;;;;;;;;5838912;28;20133;-75
2024/01/10 00:28:17;;;;;;;48.95;21.38;;;;;;;;;;5838884;28;20050;-76
2024/01/10 00:31:08;;;;;;;53.40;28.90;;;;;;;;;;5823323;28;20068;-75
2024/01/10 00:33:59;;;;;;;57.47;20.40;;;;;;;;;;5839454;28;20459;-75
2024/01/10 00:36:50;;;;;;;43.35;22.25;;;;;;;;;;5838846;28;20397;-75
2024/01/10 00:39:40;;;;;;;47.33;22.77;;;;;;;;;;5838545;28;20042;-75
2024/01/10 00:42:31;;;;;;;52.38;22.77;;;;;;;;;;5822441;28;20672;-75
2024/01/10 00:45:22;;;;;;;38.90;19.85;;;;;;;;;;5839407;28;20041;-75
2024/01/10 00:48:13;;;;;;;28.38;16.83;;;;;;;;;;5838690;28;20053;-76
2024/01/10 00:51:08;;;;;;;23.88;16.02;;;;;;;;;;5838639;28;20060;-75
2024/01/10 00:53:59;;;;;;;50.05;23.13;;;;;;;;;;5840488;28;20050;-75
2024/01/10 00:56:50;;;;;;;42.63;20.38;;;;;;;;;;5861716;28;20060;-75
2024/01/10 00:59:41;;;;;;;29.70;17.98;;;;;;;;;;5861374;28;20091;-75
2024/01/10 01:02:32;;;;;;;51.65;21.05;;;;;;;;;;5859807;28;20045;-75
2024/01/10 01:05:23;;;;;;;22.15;17.17;;;;;;;;;;5840632;28;20042;-75
2024/01/10 01:08:13;;;;;;;58.88;15.93;;;;;;;;;;5854883;28;20042;-75
2024/01/10 01:11:04;;;;;;;51.42;14.07;;;;;;;;;;5839926;28;20046;-75
2024/01/10 01:13:55;;;;;;;29.48;16.77;;;;;;;;;;5838791;28;20053;-75
2024/01/10 01:16:46;;;;;;;40.15;12.43;;;;;;;;;;5838117;28;20045;-75
2024/01/10 01:19:37;;;;;;;45.00;17.48;;;;;;;;;;5837945;28;20137;-75
2024/01/10 01:22:28;;;;;;;27.50;15.57;;;;;;;;;;5839343;28;20185;-75
2024/01/10 01:25:19;;;;;;;27.05;11.95;;;;;;;;;;5838095;28;20057;-75
2024/01/10 01:28:09;;;;;;;37.53;13.40;;;;;;;;;;5838483;28;20531;-75
2024/01/10 01:31:00;;;;;;;36.65;15.00;;;;;;;;;;5854780;28;20508;-75
2024/01/10 01:33:51;;;;;;;24.42;13.98;;;;;;;;;;5838862;28;20049;-75
2024/01/10 01:36:42;;;;;;;36.60;18.42;;;;;;;;;;5821576;28;20054;-75
2024/01/10 01:39:33;;;;;;;28.67;16.95;;;;;;;;;;5839410;28;20053;-75
2024/01/10 01:42:23;;;;;;;28.90;14.75;;;;;;;;;;5837726;28;20046;-75
2024/01/10 01:45:14;;;;;;;40.35;16.63;;;;;;;;;;5803550;28;20046;-75
2024/01/10 01:48:05;;;;;;;45.15;19.50;;;;;;;;;;5816286;28;20046;-76
2024/01/10 01:51:01;;;;;;;24.90;16.55;;;;;;;;;;5815152;28;20061;-75
2024/01/10 01:53:53;;;;;;;36.42;13.80;;;;;;;;;;5830477;28;20049;-75
2024/01/10 01:56:44;;;;;;;43.45;15.23;;;;;;;;;;5837790;28;20042;-75
2024/01/10 01:59:35;;;;;;;33.78;15.65;;;;;;;;;;5800957;28;20408;-75
2024/01/10 02:02:28;;;;;;;37.30;17.85;;;;;;;;;;5814955;28;20056;-75
2024/01/10 02:05:19;;;;;;;31.13;16.95;;;;;;;;;;5816214;28;20867;-75
2024/01/10 02:08:10;;;;;;;23.55;15.90;;;;;;;;;;5815090;28;20054;-75
2024/01/10 02:11:02;;;;;;;54.83;17.63;;;;;;;;;;5816176;28;20056;-75
2024/01/10 02:13:54;;;;;;;26.60;15.77;;;;;;;;;;5816489;28;20085;-74
2024/01/10 02:16:45;;;;;;;30.52;15.20;;;;;;;;;;5818865;28;20042;-75
2024/01/10 02:19:36;;;;;;;32.42;15.98;;;;;;;;;;5818839;28;20066;-75
2024/01/10 02:22:26;;;;;;;39.53;18.23;;;;;;;;;;5818672;28;20042;-75
2024/01/10 02:25:18;;;;;;;44.30;14.85;;;;;;;;;;5818426;28;20042;-75
2024/01/10 02:28:11;;;;;;;38.03;17.10;;;;;;;;;;5818631;28;20047;-75
2024/01/10 02:31:02;;;;;;;38.30;17.05;;;;;;;;;;5818314;28;20057;-75
2024/01/10 02:33:53;;;;;;;33.10;19.85;;;;;;;;;;5818840;28;20050;-75
2024/01/10 02:36:44;;;;;;;33.13;15.38;;;;;;;;;;5818254;28;20124;-74
2024/01/10 02:39:35;;;;;;;50.22;18.17;;;;;;;;;;5819877;28;20038;-75
2024/01/10 02:42:28;;;;;;;43.15;18.13;;;;;;;;;;5819300;28;20077;-75
2024/01/10 02:45:19;;;;;;;30.95;16.10;;;;;;;;;;5837306;28;20069;-75
2024/01/10 02:48:10;;;;;;;46.03;15.02;;;;;;;;;;5842398;28;20065;-75
2024/01/10 02:51:01;;;;;;;42.25;18.17;;;;;;;;;;5841115;28;20080;-75
2024/01/10 02:53:51;;;;;;;43.13;18.48;;;;;;;;;;5841549;28;20419;-75
2024/01/10 02:56:42;;;;;;;71.97;21.85;;;;;;;;;;5857499;28;20064;-75
2024/01/10 02:59:33;;;;;;;56.95;21.15;;;;;;;;;;5857402;28;20048;-75
2024/01/10 03:02:24;;;;;;;43.03;20.02;;;;;;;;;;5840755;28;20068;-74
2024/01/10 03:05:15;;;;;;;29.23;14.95;;;;;;;;;;5840663;28;20534;-75
2024/01/10 03:08:06;;;;;;;35.85;13.98;;;;;;;;;;5842279;28;20057;-75
2024/01/10 03:10:57;;;;;;;47.58;19.48;;;;;;;;;;5842312;28;20050;-75
2024/01/10 03:14:01;;;;;;;64.55;22.85;;;;;;;;;;5842096;28;20042;-75
2024/01/10 03:16:53;;;;;;;29.42;17.08;;;;;;;;;;5825714;28;20487;-74
2024/01/10 03:19:44;;;;;;;28.65;15.40;;;;;;;;;;5824660;28;20046;-75
2024/01/10 03:22:35;;;;;;;52.00;21.95;;;;;;;;;;5841952;28;20179;-74
2024/01/10 03:25:25;;;;;;;29.52;18.90;;;;;;;;;;5840287;28;20234;-75
2024/01/10 03:28:19;;;;;;;41.35;19.08;;;;;;;;;;5840455;28;20054;-75
2024/01/10 03:31:13;;;;;;;49.50;21.73;;;;;;;;;;5840065;28;20065;-75
2024/01/10 03:34:04;;;;;;;47.08;29.23;;;;;;;;;;5841486;28;20574;-75
2024/01/10 03:36:55;;;;;;;45.47;18.67;;;;;;;;;;5841466;28;20049;-74
2024/01/10 03:39:46;;;;;;;28.52;16.15;;;;;;;;;;5839988;28;20423;-74
2024/01/10 03:42:37;;;;;;;34.63;15.48;;;;;;;;;;5839836;28;20415;-75
2024/01/10 03:45:28;;;;;;;54.47;22.77;;;;;;;;;;5840046;28;20046;-75
2024/01/10 03:48:19;;;;;;;51.10;26.50;;;;;;;;;;5840166;28;20042;-76
2024/01/10 03:51:09;;;;;;;47.00;23.17;;;;;;;;;;5856232;28;20587;-75
2024/01/10 03:54:00;;;;;;;41.40;22.98;;;;;;;;;;5840313;28;20052;-75
2024/01/10 03:56:51;;;;;;;60.75;22.52;;;;;;;;;;5808978;28;20042;-74
2024/01/10 03:59:42;;;;;;;49.28;19.92;;;;;;;;;;5818182;28;20400;-75
2024/01/10 04:02:32;;;;;;;53.67;23.85;;;;;;;;;;5816829;28;20469;-75
2024/01/10 04:05:25;;;;;;;100.25;32.80;;;;;;;;;;5816439;28;20054;-74
2024/01/10 04:08:16;;;;;;;37.20;21.55;;;;;;;;;;5800916;28;20125;-74
2024/01/10 04:11:09;;;;;;;63.65;18.85;;;;;;;;;;5816361;28;20058;-74
2024/01/10 04:13:59;;;;;;;35.70;20.08;;;;;;;;;;5817158;28;20046;-74
2024/01/10 04:16:52;;;;;;;55.08;23.67;;;;;;;;;;5839355;28;20050;-75
2024/01/10 04:19:43;;;;;;;30.17;14.88;;;;;;;;;;5838982;28;20522;-75
2024/01/10 04:22:34;;;;;;;30.77;18.50;;;;;;;;;;5838859;28;20514;-75
2024/01/10 04:25:24;;;;;;;26.58;16.45;;;;;;;;;;5840141;28;20049;-75
2024/01/10 04:28:15;;;;;;;34.13;16.17;;;;;;;;;;5840387;28;20046;-74
2024/01/10 04:31:06;;;;;;;27.33;13.85;;;;;;;;;;5838779;28;20053;-74
2024/01/10 04:33:57;;;;;;;32.88;17.05;;;;;;;;;;5839972;28;20423;-75
2024/01/10 04:36:47;;;;;;;54.30;25.13;;;;;;;;;;5839570;28;20401;-75
2024/01/10 04:39:39;;;;;;;45.55;21.02;;;;;;;;;;5817635;28;20046;-74
2024/01/10 04:42:30;;;;;;;35.00;18.55;;;;;;;;;;5817066;28;20802;-74
2024/01/10 04:45:21;;;;;;;45.28;20.80;;;;;;;;;;5815653;28;20050;-75
2024/01/10 04:48:12;;;;;;;46.00;20.13;;;;;;;;;;5832052;28;20057;-75
2024/01/10 04:51:03;;;;;;;35.70;22.88;;;;;;;;;;5816904;28;20046;-75
2024/01/10 04:53:55;;;;;;;30.77;16.92;;;;;;;;;;5817544;28;20397;-74
2024/01/10 04:56:46;;;;;;;48.97;21.05;;;;;;;;;;5815602;28;20042;-74
2024/01/10 04:59:37;;;;;;;32.72;19.05;;;;;;;;;;5815721;28;20038;-75
2024/01/10 05:02:27;;;;;;;49.97;17.67;;;;;;;;;;5832076;28;20042;-74
2024/01/10 05:05:23;;;;;;;39.25;17.95;;;;;;;;;;5815541;28;20046;-74
2024/01/10 05:08:14;;;;;;;42.55;16.30;;;;;;;;;;5815486;28;20050;-75
2024/01/10 05:11:05;;;;;;;35.47;16.60;;;;;;;;;;5815507;28;20053;-74
2024/01/10 05:13:56;;;;;;;29.27;15.10;;;;;;;;;;5817371;28;20497;-74
2024/01/10 05:16:49;;;;;;;32.33;15.85;;;;;;;;;;5815768;28;20053;-74
2024/01/10 05:19:40;;;;;;;20.77;13.57;;;;;;;;;;5815339;28;20057;-74
2024/01/10 05:22:31;;;;;;;23.42;14.02;;;;;;;;;;5816587;28;20046;-74
2024/01/10 05:25:22;;;;;;;31.75;17.88;;;;;;;;;;5831255;28;20050;-74
2024/01/10 05:28:13;;;;;;;36.28;16.80;;;;;;;;;;5816753;28;20416;-74
2024/01/10 05:31:04;;;;;;;36.75;20.10;;;;;;;;;;5831362;28;20046;-74
2024/01/10 05:33:55;;;;;;;48.25;16.63;;;;;;;;;;5815841;28;20050;-74
2024/01/10 05:36:46;;;;;;;47.60;20.48;;;;;;;;;;5831453;28;20501;-74
2024/01/10 05:39:37;;;;;;;25.63;18.10;;;;;;;;;;5799110;28;20413;-74
2024/01/10 05:42:27;;;;;;;38.17;20.42;;;;;;;;;;5831366;28;20042;-74
2024/01/10 05:45:18;;;;;;;24.75;14.13;;;;;;;;;;5815249;28;20497;-74
2024/01/10 05:48:09;;;;;;;24.85;16.02;;;;;;;;;;5815685;28;20054;-74
2024/01/10 05:51:01;;;;;;;35.97;22.73;;;;;;;;;;5819883;28;20042;-74
2024/01/10 05:53:51;;;;;;;24.55;12.18;;;;;;;;;;5819786;28;20058;-74
2024/01/10 05:56:42;;;;;;;25.05;16.10;;;;;;;;;;5819186;28;20054;-75
2024/01/10 05:59:33;;;;;;;69.43;17.05;;;;;;;;;;5819250;28;20050;-74
2024/01/10 06:02:24;;;;;;;48.70;19.05;;;;;;;;;;5820465;28;20052;-74
2024/01/10 06:05:15;;;;;;;17.42;11.13;;;;;;;;;;5818995;28;20073;-74
2024/01/10 06:08:06;;;;;;;18.33;12.88;;;;;;;;;;5820384;28;20545;-74
2024/01/10 06:10:57;;;;;;;32.92;16.00;;;;;;;;;;5819268;28;20121;-74
2024/01/10 06:13:48;;;;;;;35.33;17.67;;;;;;;;;;5819013;28;20047;-74
2024/01/10 06:16:46;;;;;;;17.33;15.07;;;;;;;;;;5818809;28;20053;-74
2024/01/10 06:19:37;;;;;;;17.52;9.75;;;;;;;;;;5818699;28;20483;-74
2024/01/10 06:22:28;;;;;;;46.70;14.55;;;;;;;;;;5822457;28;20050;-74
2024/01/10 06:25:20;;;;;;;18.08;11.85;;;;;;;;;;5842784;28;20413;-74
2024/01/10 06:28:11;;;;;;;15.98;10.77;;;;;;;;;;5842669;28;20049;-74
2024/01/10 06:31:02;;;;;;;19.50;14.02;;;;;;;;;;5842258;28;20050;-75
2024/01/10 06:33:53;;;;;;;18.17;10.18;;;;;;;;;;5841950;28;20054;-74
2024/01/10 06:36:44;;;;;;;35.28;18.48;;;;;;;;;;5842249;28;20052;-74
2024/01/10 06:39:35;;;;;;;46.35;18.25;;;;;;;;;;5842498;28;20049;-74
2024/01/10 06:42:26;;;;;;;26.13;16.00;;;;;;;;;;5842325;28;20050;-74
2024/01/10 06:45:17;;;;;;;36.35;15.85;;;;;;;;;;5842229;28;20052;-74
2024/01/10 06:48:08;;;;;;;52.90;18.02;;;;;;;;;;5824809;28;20072;-74
2024/01/10 06:50:59;;;;;;;41.30;21.88;;;;;;;;;;5825047;28;20050;-74
2024/01/10 06:53:50;;;;;;;25.90;11.93;;;;;;;;;;5857483;28;20046;-74
2024/01/10 06:56:41;;;;;;;27.20;15.07;;;;;;;;;;5824622;28;20053;-74
2024/01/10 06:59:35;;;;;;;23.75;10.43;;;;;;;;;;5840580;28;20042;-74
2024/01/10 07:02:25;;;;;;;25.42;14.25;;;;;;;;;;5840821;28;20962;-74
2024/01/10 07:05:16;;;;;;;25.02;11.52;;;;;;;;;;5805817;28;20052;-74
2024/01/10 07:08:07;;;;;;;32.03;16.27;;;;;;;;;;5817831;28;20043;-74
2024/01/10 07:10:58;;;;;;;73.15;21.77;;;;;;;;;;5802320;28;20081;-74
2024/01/10 07:13:49;;;;;;;25.10;15.77;;;;;;;;;;5801693;28;20085;-74
2024/01/10 07:16:42;;;;;;;40.55;16.45;;;;;;;;;;5817359;28;20060;-74
2024/01/10 07:19:33;;;;;;;42.53;16.27;;;;;;;;;;5801699;28;20043;-74
2024/01/10 07:22:24;;;;;;;27.13;12.25;;;;;;;;;;5837049;28;20519;-74
2024/01/10 07:25:15;;;;;;;45.42;19.38;;;;;;;;;;5841432;28;20045;-74
2024/01/10 07:28:05;;;;;;;23.38;15.20;;;;;;;;;;5841403;28;20413;-75
2024/01/10 07:30:56;;;;;;;40.13;16.48;;;;;;;;;;5824660;28;20054;-74
2024/01/10 07:33:47;;;;;;;22.25;15.25;;;;;;;;;;5856428;28;20049;-74
2024/01/10 07:36:42;;;;;;;50.53;16.25;;;;;;;;;;5839756;28;20458;-74
2024/01/10 07:39:33;;;;;;;47.00;17.90;;;;;;;;;;5823577;28;20050;-75
2024/01/10 07:42:24;;;;;;;44.60;17.60;;;;;;;;;;5840739;28;20510;-74
2024/01/10 07:45:15;;;;;;;45.72;18.90;;;;;;;;;;5823206;28;20052;-74
2024/01/10 07:48:06;;;;;;;50.35;19.33;;;;;;;;;;5840586;28;20053;-75
2024/01/10 07:50:57;;;;;;;37.60;19.92;;;;;;;;;;5839269;28;20078;-74
2024/01/10 07:53:48;;;;;;;113.43;55.95;;;;;;;;;;5840350;28;20037;-75
2024/01/10 07:56:39;;;;;;;57.67;29.05;;;;;;;;;;5840275;28;20046;-75
2024/01/10 07:59:31;;;;;;;69.80;27.33;;;;;;;;;;5839074;28;20680;-75
2024/01/10 08:02:22;;;;;;;75.93;33.80;;;;;;;;;;5803817;28;20053;-75
2024/01/10 08:05:13;;;;;;;91.30;38.28;;;;;;;;;;5815955;28;20066;-75
2024/01/10 08:08:04;;;;;;;106.43;36.65;;;;;;;;;;5816126;28;20509;-75
2024/01/10 08:10:56;;;;;;;115.43;42.03;;;;;;;;;;5815599;28;20051;-75
2024/01/10 08:13:47;;;;;;;116.13;52.30;;;;;;;;;;5815641;28;20058;-75
2024/01/10 08:16:38;;;;;;;99.07;41.17;;;;;;;;;;5816791;28;20118;-75
2024/01/10 08:19:29;;;;;;;104.50;40.88;;;;;;;;;;5815362;28;20046;-75
2024/01/10 08:22:20;;;;;;;90.85;38.08;;;;;;;;;;5815226;28;20108;-75
2024/01/10 08:25:12;;;;;;;68.50;26.60;;;;;;;;;;5815827;28;20053;-75
2024/01/10 08:28:03;;;;;;;84.97;26.70;;;;;;;;;;5816652;28;20054;-75
2024/01/10 08:30:54;;;;;;;81.75;32.13;;;;;;;;;;5815980;28;20042;-75
2024/01/10 08:33:54;;;;;;;146.55;54.90;;;;;;;;;;5838617;28;20389;-76
2024/01/10 08:36:45;;;;;;;165.32;60.15;;;;;;;;;;5838263;28;20072;-75
2024/01/10 08:39:36;;;;;;;141.27;56.97;;;;;;;;;;5854521;28;20045;-76
2024/01/10 08:42:27;;;;;;;128.60;58.92;;;;;;;;;;5854821;28;20042;-75
2024/01/10 08:45:18;;;;;;;131.55;54.53;;;;;;;;;;5838029;28;20042;-76
2024/01/10 08:48:10;;;;;;;141.32;51.58;;;;;;;;;;5838295;28;20045;-76
2024/01/10 08:51:01;;;;;;;153.02;55.15;;;;;;;;;;5837725;28;20054;-76
2024/01/10 08:53:52;;;;;;;185.48;55.13;;;;;;;;;;5807270;28;20046;-76
2024/01/10 08:56:46;;;;;;;148.55;59.72;;;;;;;;;;5816516;28;20133;-76
2024/01/10 08:59:40;;;;;;;149.40;59.20;;;;;;;;;;5815124;28;20062;-76
2024/01/10 09:02:33;;;;;;;164.98;57.08;;;;;;;;;;5815043;28;20157;-76
2024/01/10 09:05:24;;;;;;;107.80;43.72;;;;;;;;;;5815975;28;20058;-77
2024/01/10 09:08:15;;;;;;;72.82;31.98;;;;;;;;;;5814963;28;20050;-77
2024/01/10 09:11:06;;;;;;;112.97;40.15;;;;;;;;;;5814534;28;20065;-77
2024/01/10 09:13:59;;;;;;;120.57;44.33;;;;;;;;;;5815189;28;20042;-77
2024/01/10 09:16:49;;;;;;;113.82;43.22;;;;;;;;;;5831457;28;20050;-77
2024/01/10 09:19:40;;;;;;;156.88;49.40;;;;;;;;;;5821478;28;20100;-77
2024/01/10 09:22:31;;;;;;;158.90;56.65;;;;;;;;;;5838497;28;20067;-77
2024/01/10 09:25:22;;;;;;;154.23;50.72;;;;;;;;;;5858698;28;20125;-78
2024/01/10 09:28:13;;;;;;;162.40;58.85;;;;;;;;;;5808491;28;20058;-78
2024/01/10 09:31:07;;;;;;;178.70;61.65;;;;;;;;;;5820650;28;20050;-78
2024/01/10 09:33:57;;;;;;;189.88;63.30;;;;;;;;;;5804137;28;20563;-78
2024/01/10 09:36:48;;;;;;;233.82;80.85;;;;;;;;;;5819082;28;20042;-78
2024/01/10 09:39:40;;;;;;;174.98;66.38;;;;;;;;;;5820660;28;20053;-78
2024/01/10 09:42:33;;;;;;;175.85;57.72;;;;;;;;;;5839408;28;20046;-78
2024/01/10 09:45:26;;;;;;;121.60;46.55;;;;;;;;;;5842204;28;20077;-78
2024/01/10 09:48:17;;;;;;;115.90;43.97;;;;;;;;;;5826020;28;20057;-78
2024/01/10 09:51:09;;;;;;;120.63;37.20;;;;;;;;;;5841722;28;20478;-78
2024/01/10 09:54:04;;;;;;;86.10;31.70;;;;;;;;;;5842009;28;20049;-78
2024/01/10 09:56:56;;;;;;;86.85;30.35;;;;;;;;;;5842131;28;20530;-78
2024/01/10 09:59:47;;;;;;;73.47;26.25;;;;;;;;;;5843205;28;20041;-78
2024/01/10 10:02:42;;;;;;;65.45;26.70;;;;;;;;;;5841582;28;20045;-78
2024/01/10 10:05:34;;;;;;;83.40;28.30;;;;;;;;;;5841954;28;20046;-78
2024/01/10 10:08:25;;;;;;;66.25;21.60;;;;;;;;;;5842080;28;20048;-78
2024/01/10 10:11:16;;;;;;;71.75;24.02;;;;;;;;;;5842992;28;20053;-78
2024/01/10 10:14:18;;;;;;;58.33;24.65;;;;;;;;;;5842892;28;20054;-78
2024/01/10 10:17:17;;;;;;;71.22;27.35;;;;;;;;;;5808167;28;20050;-78
2024/01/10 10:20:08;;;;;;;62.72;27.75;;;;;;;;;;5818757;28;20523;-78
2024/01/10 10:23:12;;;;;;;65.05;26.92;;;;;;;;;;5835284;28;20176;-79
2024/01/10 10:26:21;;;;;;;47.50;21.85;;;;;;;;;;5842759;28;20049;-79
2024/01/10 10:29:12;;;;;;;72.45;21.45;;;;;;;;;;5818309;28;20096;-79
2024/01/10 10:32:04;;;;;;;54.85;22.10;;;;;;;;;;5842703;28;20463;-79
2024/01/10 10:34:56;;;;;;;42.25;18.35;;;;;;;;;;5841257;28;20041;-79
2024/01/10 10:37:52;;;;;;;47.50;19.38;;;;;;;;;;5841435;28;20526;-79
2024/01/10 10:40:43;;;;;;;39.67;17.38;;;;;;;;;;5841509;28;20046;-79
2024/01/10 10:43:37;;;;;;;36.65;15.38;;;;;;;;;;5841253;28;20042;-80
2024/01/10 10:46:32;;;;;;;41.22;15.07;;;;;;;;;;5840985;28;20038;-80
2024/01/10 10:49:31;;;;;;;32.05;14.38;;;;;;;;;;5840975;28;20057;-80
2024/01/10 10:52:24;;;;;;;35.83;12.90;;;;;;;;;;5840675;28;20053;-80
2024/01/10 10:55:17;;;;;;;21.38;11.55;;;;;;;;;;5842058;28;20042;-80
2024/01/10 10:58:08;;;;;;;24.13;10.50;;;;;;;;;;5840736;28;20546;-80
2024/01/10 11:01:07;;;;;;;23.63;8.77;;;;;;;;;;5840383;28;20066;-79
2024/01/10 11:03:58;;;;;;;25.08;10.52;;;;;;;;;;5857673;28;20411;-79
2024/01/10 11:06:49;;;;;;;21.30;7.88;;;;;;;;;;5856847;28;20069;-79
2024/01/10 11:09:44;;;;;;;23.88;10.57;;;;;;;;;;5856966;28;20412;-79
2024/01/10 11:12:59;;;;;;;26.67;12.10;;;;;;;;;;5840575;28;20120;-79
2024/01/10 11:16:07;;;;;;;19.00;9.00;;;;;;;;;;5833864;28;20046;-79
2024/01/10 11:19:56;;;;;;;25.17;8.85;;;;;;;;;;5840538;28;20046;-79
2024/01/10 11:23:33;;;;;;;29.48;10.98;;;;;;;;;;5818411;28;20101;-79
2024/01/10 11:26:25;;;;;;;27.88;11.55;;;;;;;;;;5818118;28;20061;-79
2024/01/10 11:29:15;;;;;;;29.27;10.60;;;;;;;;;;5817192;28;20042;-79
2024/01/10 11:32:12;;;;;;;31.75;12.63;;;;;;;;;;5833080;28;20058;-79
2024/01/10 11:35:20;;;;;;;26.60;11.70;;;;;;;;;;5817534;28;20070;-79
2024/01/10 11:38:11;;;;;;;27.20;12.23;;;;;;;;;;5801335;28;20133;-79
2024/01/10 11:41:04;;;;;;;28.67;11.52;;;;;;;;;;5816768;28;20042;-79
2024/01/10 11:47:05;;;;;;;26.50;9.68;;;;;;;;;;5816821;28;20564;-79
2024/01/10 11:49:57;;;;;;;32.30;9.02;;;;;;;;;;5801392;28;20046;-79
2024/01/10 11:52:53;;;;;;;25.92;11.45;;;;;;;;;;5816544;28;20497;-79
2024/01/10 11:55:51;;;;;;;28.42;9.75;;;;;;;;;;5816600;28;20060;-79
2024/01/10 11:59:05;;;;;;;30.98;9.05;;;;;;;;;;5816666;28;20056;-79
2024/01/10 12:02:01;;;;;;;32.72;9.43;;;;;;;;;;5832984;28;20052;-79
2024/01/10 12:04:53;;;;;;;23.05;10.30;;;;;;;;;;5816726;28;20504;-79
2024/01/10 12:07:44;;;;;;;24.42;9.68;;;;;;;;;;5816795;28;20073;-79
2024/01/10 12:10:39;;;;;;;28.98;10.05;;;;;;;;;;5833112;28;20405;-79
2024/01/10 12:13:30;;;;;;;22.77;9.70;;;;;;;;;;5800942;28;20088;-79
2024/01/10 12:16:23;;;;;;;17.20;7.40;;;;;;;;;;5832364;28;20050;-79
2024/01/10 12:19:14;;;;;;;24.98;10.23;;;;;;;;;;5800218;28;20047;-79
2024/01/10 12:22:05;;;;;;;17.27;8.20;;;;;;;;;;5816103;28;20052;-79
2024/01/10 12:25:05;;;;;;;26.70;9.02;;;;;;;;;;5816513;28;20054;-79
2024/01/10 12:28:02;;;;;;;22.35;9.50;;;;;;;;;;5807880;28;20038;-79
2024/01/10 12:30:53;;;;;;;22.30;7.28;;;;;;;;;;5840167;28;20034;-80
2024/01/10 12:33:44;;;;;;;23.90;9.88;;;;;;;;;;5839349;28;20046;-79
2024/01/10 12:36:35;;;;;;;16.70;7.45;;;;;;;;;;5838827;28;20472;-79
2024/01/10 12:39:31;;;;;;;16.10;7.95;;;;;;;;;;5838790;28;20045;-79
2024/01/10 12:42:22;;;;;;;20.17;8.75;;;;;;;;;;5854487;28;20099;-79
2024/01/10 12:45:23;;;;;;;23.75;8.65;;;;;;;;;;5854929;28;20042;-80
2024/01/10 12:48:17;;;;;;;30.25;11.85;;;;;;;;;;5839814;28;20415;-80
2024/01/10 12:51:12;;;;;;;20.50;9.35;;;;;;;;;;5838650;28;20049;-81
2024/01/10 12:54:06;;;;;;;22.50;9.27;;;;;;;;;;5838733;28;20133;-81
2024/01/10 12:56:57;;;;;;;26.25;11.15;;;;;;;;;;5855311;28;20448;-81
2024/01/10 12:59:48;;;;;;;24.25;11.00;;;;;;;;;;5838560;28;20041;-81
2024/01/10 13:02:40;;;;;;;31.60;12.00;;;;;;;;;;5838201;28;20046;-81
2024/01/10 13:05:31;;;;;;;26.45;10.75;;;;;;;;;;5821924;28;20043;-81
2024/01/10 13:08:23;;;;;;;20.98;10.32;;;;;;;;;;5838064;28;20042;-81
2024/01/10 13:11:14;;;;;;;38.03;10.10;;;;;;;;;;5821965;28;20181;-81
2024/01/10 13:14:05;;;;;;;32.53;10.65;;;;;;;;;;5839102;28;20092;-81
2024/01/10 13:16:56;;;;;;;16.27;10.43;;;;;;;;;;5839914;28;20045;-81
2024/01/10 13:19:50;;;;;;;22.38;8.80;;;;;;;;;;5838581;28;20041;-81
2024/01/10 13:22:41;;;;;;;39.42;12.43;;;;;;;;;;5854170;28;20046;-81
2024/01/10 13:25:32;;;;;;;26.13;10.57;;;;;;;;;;5838414;28;20057;-81
2024/01/10 13:28:22;;;;;;;31.02;12.98;;;;;;;;;;5838213;28;20050;-81
2024/01/10 13:31:15;;;;;;;21.10;10.60;;;;;;;;;;5838054;28;20527;-81
2024/01/10 13:34:07;;;;;;;26.05;10.60;;;;;;;;;;5838161;28;20082;-81
2024/01/10 13:36:58;;;;;;;21.42;8.93;;;;;;;;;;5838273;28;20042;-81
2024/01/10 13:39:49;;;;;;;52.35;12.63;;;;;;;;;;5854123;28;20038;-82
2024/01/10 13:42:40;;;;;;;29.95;14.85;;;;;;;;;;5837833;28;20042;-82
2024/01/10 13:45:31;;;;;;;36.15;18.10;;;;;;;;;;5837894;28;20056;-79
2024/01/10 13:48:27;;;;;;;31.15;16.92;;;;;;;;;;5839187;28;20133;-79
2024/01/10 13:51:27;;;;;;;33.28;14.18;;;;;;;;;;5803737;28;20046;-79
2024/01/10 13:54:17;;;;;;;43.45;14.85;;;;;;;;;;5799149;28;20046;-79
2024/01/10 13:57:08;;;;;;;52.38;15.85;;;;;;;;;;5814844;28;20046;-79
2024/01/10 14:00:01;;;;;;;28.95;11.27;;;;;;;;;;5831644;28;20073;-79
2024/01/10 14:02:58;;;;;;;39.20;12.88;;;;;;;;;;5838042;28;20056;-79
2024/01/10 14:05:49;;;;;;;47.05;14.63;;;;;;;;;;5837741;28;20042;-79
2024/01/10 14:08:43;;;;;;;46.10;17.17;;;;;;;;;;5853990;28;20045;-79
2024/01/10 14:11:34;;;;;;;37.30;16.30;;;;;;;;;;5841330;28;20042;-79
2024/01/10 14:14:25;;;;;;;49.20;20.20;;;;;;;;;;5841973;28;20413;-79
2024/01/10 14:17:16;;;;;;;53.53;20.83;;;;;;;;;;5858074;28;20519;-79
2024/01/10 14:20:08;;;;;;;57.30;22.88;;;;;;;;;;5842285;28;20115;-79
2024/01/10 14:23:00;;;;;;;66.07;23.90;;;;;;;;;;5842034;28;20045;-79
2024/01/10 14:25:53;;;;;;;56.53;19.55;;;;;;;;;;5843366;28;20430;-79
2024/01/10 14:28:44;;;;;;;43.80;19.13;;;;;;;;;;5841570;28;20053;-78
2024/01/10 14:31:34;;;;;;;49.17;18.40;;;;;;;;;;5841671;28;20411;-78
2024/01/10 14:34:46;;;;;;;35.95;18.10;;;;;;;;;;5842025;28;20069;-78
2024/01/10 14:37:38;;;;;;;37.58;17.13;;;;;;;;;;5842569;28;20502;-78
2024/01/10 14:40:28;;;;;;;38.53;14.10;;;;;;;;;;5842347;28;20096;-78
2024/01/10 14:43:19;;;;;;;39.13;16.02;;;;;;;;;;5839982;28;20057;-78
2024/01/10 14:46:10;;;;;;;41.67;16.70;;;;;;;;;;5841371;28;20049;-78
2024/01/10 14:49:00;;;;;;;50.22;16.02;;;;;;;;;;5843188;28;20050;-78
2024/01/10 14:51:51;;;;;;;38.10;15.45;;;;;;;;;;5834881;28;20057;-78
2024/01/10 14:55:50;;;;;;;46.92;18.00;;;;;;;;;;5906061;27;20408;-78
2024/01/10 14:58:41;;;;;;;37.25;14.27;;;;;;;;;;5881401;28;20048;-78
2024/01/10 15:01:32;;;;;;;32.60;13.75;;;;;;;;;;5883054;28;20047;-78
2024/01/10 15:04:23;;;;;;;41.80;17.13;;;;;;;;;;5864972;28;20056;-78
2024/01/10 15:07:14;;;;;;;34.35;17.17;;;;;;;;;;5881771;28;20045;-78
2024/01/10 15:10:06;;;;;;;42.30;14.20;;;;;;;;;;5881158;28;20121;-78
2024/01/10 15:12:57;;;;;;;37.85;15.10;;;;;;;;;;5881450;28;20452;-77
2024/01/10 15:15:48;;;;;;;43.10;16.60;;;;;;;;;;5880985;28;20049;-77
2024/01/10 15:18:39;;;;;;;31.33;14.88;;;;;;;;;;5880633;28;20056;-77
2024/01/10 15:21:30;;;;;;;46.08;14.45;;;;;;;;;;5897427;28;20049;-77
2024/01/10 15:24:21;;;;;;;59.53;17.00;;;;;;;;;;5880465;28;20060;-77
2024/01/10 15:27:12;;;;;;;71.55;21.15;;;;;;;;;;5864642;28;20060;-77
2024/01/10 15:30:05;;;;;;;50.25;19.77;;;;;;;;;;5880567;28;20052;-77
2024/01/10 15:33:06;;;;;;;48.65;19.15;;;;;;;;;;5882135;28;20134;-77
2024/01/10 15:35:57;;;;;;;52.22;21.10;;;;;;;;;;5882162;28;20052;-77
2024/01/10 15:38:48;;;;;;;48.33;17.90;;;;;;;;;;5881619;28;20060;-77
2024/01/10 15:41:39;;;;;;;44.22;17.77;;;;;;;;;;5880440;28;20045;-77
2024/01/10 15:44:30;;;;;;;47.20;17.65;;;;;;;;;;5881609;28;20048;-77
2024/01/10 15:47:21;;;;;;;53.25;18.05;;;;;;;;;;5880201;28;20180;-77
2024/01/10 15:50:12;;;;;;;55.33;21.02;;;;;;;;;;5880095;28;20037;-77
2024/01/10 15:53:03;;;;;;;39.40;18.67;;;;;;;;;;5880097;28;20060;-77
2024/01/10 15:55:55;;;;;;;35.53;16.88;;;;;;;;;;5863912;28;20045;-77
2024/01/10 15:58:47;;;;;;;42.63;17.52;;;;;;;;;;5879642;28;20391;-77
2024/01/10 16:01:37;;;;;;;53.17;18.65;;;;;;;;;;5896300;28;20411;-77
2024/01/10 16:04:28;;;;;;;64.03;21.08;;;;;;;;;;5880318;28;20060;-77
2024/01/10 16:07:21;;;;;;;58.97;22.63;;;;;;;;;;5863966;28;20053;-77
2024/01/10 16:10:32;;;;;;;75.05;24.58;;;;;;;;;;5880029;28;20042;-77
2024/01/10 16:13:24;;;;;;;60.17;22.42;;;;;;;;;;5863498;28;20045;-77
2024/01/10 16:16:22;;;;;;;85.53;26.67;;;;;;;;;;5862932;28;20050;-77
2024/01/10 16:19:13;;;;;;;71.97;23.92;;;;;;;;;;5845388;28;20103;-77
2024/01/10 16:22:04;;;;;;;64.70;24.25;;;;;;;;;;5864035;28;20073;-77
2024/01/10 16:24:55;;;;;;;59.75;24.05;;;;;;;;;;5862223;28;20076;-77
2024/01/10 16:27:45;;;;;;;74.50;26.73;;;;;;;;;;5861599;28;20060;-77
2024/01/10 16:30:36;;;;;;;74.00;28.92;;;;;;;;;;5861239;28;20278;-77
2024/01/10 16:33:27;;;;;;;76.78;28.27;;;;;;;;;;5861075;28;20104;-77
2024/01/10 16:36:18;;;;;;;65.35;26.17;;;;;;;;;;5861347;28;20053;-77
2024/01/10 16:39:09;;;;;;;89.53;29.65;;;;;;;;;;5862027;28;20079;-77
2024/01/10 16:41:59;;;;;;;92.93;25.80;;;;;;;;;;5863793;28;20144;-77
2024/01/10 16:44:50;;;;;;;92.30;26.92;;;;;;;;;;5863427;28;20415;-77
2024/01/10 16:47:41;;;;;;;91.97;29.08;;;;;;;;;;5863247;28;20071;-77